sensor_id;sensor_type;location;lat;lon;timestamp;temperature;humidity
6355;DHT22;3210;48.708;9.030;2022-08-03T21:52:58;21.70;99.90
6355;DHT22;3210;48.708;9.030;2022-08-03T21:55:25;21.60;99.90
6355;DHT22;3210;48.708;9.030;2022-08-03T21:57:55;21.50;99.90
6355;DHT22;3210;48.708;9.030;2022-08-03T22:00:25;21.50;99.90
6355;DHT22;3210;48.708;9.030;2022-08-03T22:02:55;21.40;99.90
6355;DHT22;3210;48.708;9.030;2022-08-03T22:05:23;21.40;99.90
6355;DHT22;3210;48.708;9.030;2022-08-03T22:07:50;21.30;99.90
6355;DHT22;3210;48.708;9.030;2022-08-03T22:10:20;21.30;99.90
6355;DHT22;3210;48.708;9.030;2022-08-03T22:12:47;21.30;99.90
6355;DHT22;3210;48.708;9.030;2022-08-03T22:15:13;21.20;99.90
6355;DHT22;3210;48.708;9.030;2022-08-03T22:17:42;21.20;99.90
6355;DHT22;3210;48.708;9.030;2022-08-03T22:20:10;21.20;99.90
6355;DHT22;3210;48.708;9.030;2022-08-03T22:22:39;21.10;99.90
6355;DHT22;3210;48.708;9.030;2022-08-03T22:25:08;21.10;99.90
6355;DHT22;3210;48.708;9.030;2022-08-03T22:27:38;21.00;99.90
6355;DHT22;3210;48.708;9.030;2022-08-03T22:30:07;21.10;1.00
6355;DHT22;3210;48.708;9.030;2022-08-03T22:32:38;21.00;99.90
6355;DHT22;3210;48.708;9.030;2022-08-03T22:35:06;21.00;99.90
6355;DHT22;3210;48.708;9.030;2022-08-03T22:37:34;20.90;99.90
6355;DHT22;3210;48.708;9.030;2022-08-03T22:40:05;20.90;99.90
6355;DHT22;3210;48.708;9.030;2022-08-03T22:42:33;20.90;99.90
6355;DHT22;3210;48.708;9.030;2022-08-03T22:45:05;20.90;99.90
6355;DHT22;3210;48.708;9.030;2022-08-03T22:47:37;20.90;99.90
6355;DHT22;3210;48.708;9.030;2022-08-03T22:50:06;20.80;99.90
6355;DHT22;3210;48.708;9.030;2022-08-03T22:52:35;20.80;1.00
6355;DHT22;3210;48.708;9.030;2022-08-03T22:55:05;20.80;99.90
6355;DHT22;3210;48.708;9.030;2022-08-03T22:57:33;20.80;1.00
6355;DHT22;3210;48.708;9.030;2022-08-03T23:00:05;20.70;1.00
6355;DHT22;3210;48.708;9.030;2022-08-03T23:02:34;20.70;99.90
6355;DHT22;3210;48.708;9.030;2022-08-03T23:05:24;20.70;99.90
6355;DHT22;3210;48.708;9.030;2022-08-03T23:07:51;20.70;1.00
6355;DHT22;3210;48.708;9.030;2022-08-03T23:10:18;20.70;1.00
6355;DHT22;3210;48.708;9.030;2022-08-03T23:12:47;20.60;1.00
6355;DHT22;3210;48.708;9.030;2022-08-03T23:15:16;20.60;1.00
6355;DHT22;3210;48.708;9.030;2022-08-03T23:17:47;20.60;1.00
6355;DHT22;3210;48.708;9.030;2022-08-03T23:20:17;20.60;1.00
6355;DHT22;3210;48.708;9.030;2022-08-03T23:22:44;20.60;1.00
6355;DHT22;3210;48.708;9.030;2022-08-03T23:25:14;20.60;1.00
6355;DHT22;3210;48.708;9.030;2022-08-03T23:27:43;20.60;1.00
6355;DHT22;3210;48.708;9.030;2022-08-03T23:30:11;20.60;1.00
6355;DHT22;3210;48.708;9.030;2022-08-03T23:32:41;20.60;1.00
6355;DHT22;3210;48.708;9.030;2022-08-03T23:35:08;20.60;1.00
6355;DHT22;3210;48.708;9.030;2022-08-03T23:37:59;20.50;99.90
6355;DHT22;3210;48.708;9.030;2022-08-03T23:40:27;20.50;99.90
6355;DHT22;3210;48.708;9.030;2022-08-03T23:42:56;20.50;99.90
6355;DHT22;3210;48.708;9.030;2022-08-03T23:45:25;20.50;1.00
6355;DHT22;3210;48.708;9.030;2022-08-03T23:47:54;20.40;1.00
6355;DHT22;3210;48.708;9.030;2022-08-03T23:50:21;20.40;1.00
6355;DHT22;3210;48.708;9.030;2022-08-03T23:53:02;20.30;1.00
6355;DHT22;3210;48.708;9.030;2022-08-03T23:55:43;20.30;1.00
6355;DHT22;3210;48.708;9.030;2022-08-03T23:58:21;20.30;1.00
